Terminal Aerodrome Forecast
Issued by NWS

Home | Current Version | Previous Version | Text Only | Print | Product List | Glossary On
Versions: 1 2 3 4 5 6 7 8 9 10 11 12 13
856
FTUS46 KMFR 261849 AAA
TAFRBG
TAF AMD
KRBG 261849Z 2619/2718 01003KT P6SM FEW020
     FM262000 35007KT P6SM FEW025 BKN035
     FM271100 35005KT P6SM OVC025=

USA.gov is the U.S. government's official web portal to all federal, state and local government web resources and services.